Hagerstown Regional Richard A Henson Field
KHGR : now visible

Aeroporto :











RITROVATECI SU...

 
LOGIN :

Iscrizione | Disclaimer

   EN    FR    IT 

 









Sommario :    VFR   VFR Marginale   IFR   IFR Intensivo   IFR Molto Intensivo
Visibilità : 
Base nubi : 
>= 8 km
>= 3000ft
5 / 8 km
1000 / 3000 ft
1500m / 5 km
500 / 1000 ft
800 / 1500m
200 / 500 ft
< 800m
< 200 ft
Simboli :   Temporali  Nebbia  Neve Forte  Precipitazioni Forti  Vento > 20 kt






- Altitudine del aeroporto : 703 ft
- Codice IATA : HGR


KHGR - Hagerstown Regional Richard A Henson Field

ULTIMO METAR :
  • 040253Z AUTO 02006KT 10SM FEW075 10/04 A2994 RMK AO2 SLP151 T01000039 51028

METARs OBSOLETI :
  • 040153Z 05009KT 10SM CLR 11/04 A2992 RMK AO2 SLP144 T01060039
  • 040053Z 03006KT 10SM FEW070 12/03 A2990 RMK AO2 SLP135 T01170033

TAF N/A



MetMap, La meteo Aeronautica in un colpo d'occhio ! - Copyright ORBIFLY Dicembre 2007 - Disclaimer

ORBIFLY MET'MAP TEAM :

Programmazione e sviluppo : Alexandra Zaïnal
Concezione : Baudouin d'Aumeries
Aiuto per la programmazione : Marc-Olivier Méhu
Supporto tecnico e logistico : Manuel Goepfert
Aiuto per la traduzione : Arnaldo La Scala

Contatto : metmap@orbifly.com




FONTI E CREDITI :

   NOAA       Earth
Advisory